createdAt,value
2018-05-31T00:01:22.886Z,18.03
2018-05-31T00:02:22.772Z,18.06
2018-05-31T00:04:15.593Z,17.99
2018-05-31T00:05:15.510Z,17.99
2018-05-31T00:07:08.388Z,17.94
2018-05-31T00:08:08.280Z,17.96
2018-05-31T00:10:01.098Z,17.90
2018-05-31T00:11:00.998Z,17.88
2018-05-31T00:12:53.914Z,17.94
2018-05-31T00:13:53.750Z,17.94
2018-05-31T00:15:46.600Z,18.01
2018-05-31T00:16:46.508Z,17.88
2018-05-31T00:18:39.381Z,17.87
2018-05-31T00:19:39.305Z,17.86
2018-05-31T00:21:32.113Z,17.99
2018-05-31T00:22:32.007Z,17.91
2018-05-31T00:24:24.870Z,17.90
2018-05-31T00:25:24.756Z,17.88
2018-05-31T00:27:17.625Z,17.86
2018-05-31T00:28:17.532Z,17.79
2018-05-31T00:30:10.371Z,17.79
2018-05-31T00:31:10.247Z,17.71
2018-05-31T00:33:03.094Z,17.76
2018-05-31T00:34:03.027Z,17.76
2018-05-31T00:35:55.891Z,17.68
2018-05-31T00:36:55.747Z,17.72
2018-05-31T00:38:48.611Z,17.63
2018-05-31T00:39:48.501Z,17.59
2018-05-31T00:41:41.344Z,17.56
2018-05-31T00:42:41.260Z,17.53
2018-05-31T00:44:34.128Z,17.57
2018-05-31T00:45:34.014Z,17.52
2018-05-31T00:47:26.855Z,17.53
2018-05-31T00:48:26.751Z,17.45
2018-05-31T00:50:19.621Z,17.46
2018-05-31T00:51:19.500Z,17.45
2018-05-31T00:53:12.353Z,17.41
2018-05-31T00:54:12.244Z,17.41
2018-05-31T00:56:05.113Z,17.41
2018-05-31T00:57:04.998Z,17.32
2018-05-31T00:58:57.871Z,17.34
2018-05-31T00:59:57.745Z,17.34
2018-05-31T01:01:50.600Z,17.34
2018-05-31T01:02:50.513Z,17.34
2018-05-31T01:04:43.346Z,17.32
2018-05-31T01:05:43.267Z,17.25
2018-05-31T01:07:36.307Z,17.24
2018-05-31T01:08:36.215Z,17.10
2018-05-31T01:10:29.040Z,17.10
2018-05-31T01:11:28.951Z,17.17
2018-05-31T01:13:21.807Z,17.10
2018-05-31T01:14:21.697Z,17.22
2018-05-31T01:16:14.672Z,17.07
2018-05-31T01:17:14.582Z,17.20
2018-05-31T01:19:07.507Z,17.28
2018-05-31T01:20:07.432Z,17.25
2018-05-31T01:22:00.403Z,17.28
2018-05-31T01:23:00.273Z,17.24
2018-05-31T01:24:53.196Z,17.22
2018-05-31T01:25:53.101Z,17.25
2018-05-31T01:27:46.497Z,17.13
2018-05-31T01:28:46.381Z,17.12
2018-05-31T01:30:39.733Z,17.12
2018-05-31T01:31:39.230Z,17.09
2018-05-31T01:33:32.181Z,17.16
2018-05-31T01:34:32.092Z,17.04
2018-05-31T01:36:25.035Z,17.10
2018-05-31T01:37:24.921Z,17.01
2018-05-31T01:39:17.900Z,16.99
2018-05-31T01:40:17.777Z,17.04
2018-05-31T01:42:10.717Z,17.12
2018-05-31T01:43:10.630Z,17.16
2018-05-31T01:45:03.598Z,17.12
2018-05-31T01:46:03.474Z,17.09
2018-05-31T01:47:56.435Z,17.10
2018-05-31T01:48:56.337Z,17.07
2018-05-31T01:50:49.711Z,16.94
2018-05-31T01:51:49.602Z,16.97
2018-05-31T01:53:42.541Z,17.02
2018-05-31T01:54:42.455Z,16.99
2018-05-31T01:56:35.397Z,16.97
2018-05-31T01:57:35.294Z,16.90
2018-05-31T01:59:28.286Z,16.97
2018-05-31T02:00:28.147Z,16.92
2018-05-31T02:02:21.125Z,17.01
2018-05-31T02:03:21.010Z,16.90
2018-05-31T02:05:13.959Z,16.92
2018-05-31T02:06:13.849Z,16.88
2018-05-31T02:08:06.805Z,16.87
2018-05-31T02:09:06.715Z,16.87
2018-05-31T02:11:00.084Z,16.74
2018-05-31T02:11:59.563Z,16.72
2018-05-31T02:13:52.650Z,16.72
2018-05-31T02:14:52.414Z,16.73
2018-05-31T02:16:45.353Z,16.73
2018-05-31T02:17:45.276Z,16.73
2018-05-31T02:19:39.689Z,16.74
2018-05-31T02:20:39.562Z,16.73
2018-05-31T02:22:32.503Z,16.72
2018-05-31T02:23:32.419Z,16.76
2018-05-31T02:25:26.284Z,16.73
2018-05-31T02:26:25.863Z,16.77
2018-05-31T02:28:18.801Z,16.73
2018-05-31T02:29:18.710Z,16.74
2018-05-31T02:31:11.691Z,16.73
2018-05-31T02:32:11.568Z,16.72
2018-05-31T02:34:04.505Z,16.79
2018-05-31T02:35:04.417Z,16.64
2018-05-31T02:36:57.397Z,16.69
2018-05-31T02:37:57.286Z,16.58
2018-05-31T02:39:50.216Z,16.57
2018-05-31T02:40:50.124Z,16.55
2018-05-31T02:42:43.084Z,16.54
2018-05-31T02:43:42.987Z,16.47
2018-05-31T02:45:35.940Z,16.54
2018-05-31T02:46:35.827Z,16.55
2018-05-31T02:48:28.772Z,16.51
2018-05-31T02:49:28.700Z,16.54
2018-05-31T02:51:21.639Z,16.46
2018-05-31T02:52:21.531Z,16.49
2018-05-31T02:54:14.491Z,16.51
2018-05-31T02:55:14.400Z,16.42
2018-05-31T02:57:07.347Z,16.37
2018-05-31T02:58:07.239Z,16.34
2018-05-31T03:00:00.077Z,16.25
2018-05-31T03:00:59.986Z,16.18
2018-05-31T03:02:52.868Z,16.17
2018-05-31T03:03:52.736Z,16.24
2018-05-31T03:05:45.593Z,16.25
2018-05-31T03:06:45.493Z,16.29
2018-05-31T03:08:38.356Z,16.36
2018-05-31T03:09:38.252Z,16.40
2018-05-31T03:11:31.098Z,16.34
2018-05-31T03:12:30.999Z,16.26
2018-05-31T03:14:23.844Z,16.37
2018-05-31T03:15:23.740Z,16.40
2018-05-31T03:17:16.591Z,16.32
2018-05-31T03:18:16.486Z,16.40
2018-05-31T03:20:09.482Z,16.33
2018-05-31T03:21:09.252Z,16.37
2018-05-31T03:23:02.091Z,16.39
2018-05-31T03:24:01.982Z,16.33
2018-05-31T03:25:54.853Z,16.32
2018-05-31T03:26:54.749Z,16.29
2018-05-31T03:28:47.753Z,16.33
2018-05-31T03:29:47.514Z,16.37
2018-05-31T03:31:40.334Z,16.39
2018-05-31T03:32:40.240Z,16.33
2018-05-31T03:34:33.114Z,16.28
2018-05-31T03:35:33.007Z,16.33
2018-05-31T03:37:25.819Z,16.34
2018-05-31T03:38:25.722Z,16.34
2018-05-31T03:40:18.622Z,16.36
2018-05-31T03:41:18.495Z,16.37
2018-05-31T03:43:11.861Z,16.32
2018-05-31T03:44:11.223Z,16.34
2018-05-31T03:46:04.101Z,16.37
2018-05-31T03:47:03.995Z,16.37
2018-05-31T03:48:56.718Z,16.37
2018-05-31T03:49:56.623Z,16.49
2018-05-31T03:51:49.506Z,16.59
2018-05-31T03:52:49.388Z,16.55
2018-05-31T03:54:42.246Z,16.73
2018-05-31T03:55:42.125Z,16.73
2018-05-31T03:57:34.990Z,16.79
2018-05-31T03:58:34.873Z,16.73
2018-05-31T04:00:27.749Z,16.72
2018-05-31T04:01:27.655Z,16.76
2018-05-31T04:03:20.507Z,16.72
2018-05-31T04:04:20.395Z,16.73
2018-05-31T04:06:13.144Z,16.74
2018-05-31T04:07:13.026Z,16.77
2018-05-31T04:09:05.858Z,16.90
2018-05-31T04:10:05.764Z,16.91
2018-05-31T04:11:58.630Z,16.92
2018-05-31T04:12:58.521Z,16.97
2018-05-31T04:14:51.281Z,16.99
2018-05-31T04:15:51.187Z,17.04
2018-05-31T04:17:44.009Z,17.07
2018-05-31T04:18:43.917Z,17.12
2018-05-31T04:20:37.270Z,17.25
2018-05-31T04:21:36.663Z,17.20
2018-05-31T04:23:29.539Z,17.24
2018-05-31T04:24:29.443Z,17.22
2018-05-31T04:26:22.271Z,17.31
2018-05-31T04:27:22.178Z,17.31
2018-05-31T04:29:15.579Z,17.35
2018-05-31T04:30:15.427Z,17.39
2018-05-31T04:32:08.303Z,17.45
2018-05-31T04:33:08.183Z,17.53
2018-05-31T04:35:01.042Z,17.53
2018-05-31T04:36:01.024Z,17.66
2018-05-31T04:37:53.788Z,17.71
2018-05-31T04:38:53.671Z,17.75
2018-05-31T04:40:46.537Z,17.73
2018-05-31T04:41:46.433Z,17.68
2018-05-31T04:43:39.296Z,17.78
2018-05-31T04:44:39.182Z,17.83
2018-05-31T04:46:32.023Z,17.91
2018-05-31T04:47:31.935Z,17.83
2018-05-31T04:49:24.700Z,17.96
2018-05-31T04:50:24.574Z,17.94
2018-05-31T04:52:17.408Z,17.93
2018-05-31T04:53:17.318Z,17.94
2018-05-31T04:55:10.168Z,17.99
2018-05-31T04:56:10.064Z,17.99
2018-05-31T04:58:02.925Z,18.06
2018-05-31T04:59:02.825Z,18.05
2018-05-31T05:00:56.088Z,18.20
2018-05-31T05:01:55.981Z,18.26
2018-05-31T05:03:48.813Z,18.31
2018-05-31T05:04:48.732Z,18.43
2018-05-31T05:06:41.609Z,18.41
2018-05-31T05:07:41.483Z,18.43
2018-05-31T05:09:34.332Z,18.52
2018-05-31T05:10:34.224Z,18.57
2018-05-31T05:12:27.081Z,18.66
2018-05-31T05:13:26.985Z,18.63
2018-05-31T05:15:19.822Z,18.76
2018-05-31T05:16:19.721Z,18.82
2018-05-31T05:18:12.575Z,18.74
2018-05-31T05:19:12.478Z,18.89
2018-05-31T05:21:05.328Z,18.91
2018-05-31T05:22:05.272Z,18.93
2018-05-31T05:23:58.157Z,19.01
2018-05-31T05:24:57.973Z,19.05
2018-05-31T05:26:50.859Z,19.01
2018-05-31T05:27:50.721Z,19.09
2018-05-31T05:29:43.570Z,19.07
2018-05-31T05:30:43.492Z,19.12
2018-05-31T05:32:36.348Z,19.19
2018-05-31T05:33:36.240Z,19.20
2018-05-31T05:35:29.083Z,19.20
2018-05-31T05:36:28.989Z,19.26
2018-05-31T05:38:21.823Z,19.24
2018-05-31T05:39:21.734Z,19.24
2018-05-31T05:41:14.566Z,19.39
2018-05-31T05:42:14.465Z,19.37
2018-05-31T05:44:07.346Z,19.47
2018-05-31T05:45:07.224Z,19.60
2018-05-31T05:47:00.082Z,19.52
2018-05-31T05:47:59.982Z,19.60
2018-05-31T05:49:52.845Z,19.62
2018-05-31T05:50:52.731Z,19.72
2018-05-31T05:52:45.573Z,19.79
2018-05-31T05:53:45.470Z,19.87
2018-05-31T05:55:38.315Z,19.87
2018-05-31T05:56:38.221Z,19.93
2018-05-31T05:58:31.075Z,20.07
2018-05-31T05:59:30.963Z,20.11
2018-05-31T06:01:23.816Z,20.17
2018-05-31T06:02:23.716Z,20.18
2018-05-31T06:04:16.611Z,20.23
2018-05-31T06:05:16.475Z,20.29
2018-05-31T06:07:09.322Z,20.36
2018-05-31T06:08:09.212Z,20.37
2018-05-31T06:10:02.135Z,20.44
2018-05-31T06:11:01.996Z,20.39
2018-05-31T06:12:54.821Z,20.50
2018-05-31T06:13:54.723Z,20.52
2018-05-31T06:15:47.992Z,20.63
2018-05-31T06:16:47.884Z,20.64
2018-05-31T06:18:40.721Z,20.74
2018-05-31T06:19:40.658Z,20.77
2018-05-31T06:21:33.552Z,20.79
2018-05-31T06:22:33.398Z,20.86
2018-05-31T06:24:26.230Z,20.93
2018-05-31T06:25:26.128Z,20.93
2018-05-31T06:27:18.996Z,21.03
2018-05-31T06:28:18.894Z,21.07
2018-05-31T06:30:11.737Z,21.18
2018-05-31T06:31:11.634Z,21.25
2018-05-31T06:33:04.463Z,21.32
2018-05-31T06:34:04.379Z,21.32
2018-05-31T06:35:57.232Z,21.41
2018-05-31T06:36:57.125Z,21.44
2018-05-31T06:38:49.967Z,21.62
2018-05-31T06:39:49.883Z,21.66
2018-05-31T06:41:42.735Z,21.81
2018-05-31T06:42:42.648Z,21.73
2018-05-31T06:44:35.457Z,21.90
2018-05-31T06:45:35.377Z,21.94
2018-05-31T06:47:28.246Z,22.03
2018-05-31T06:48:28.139Z,22.21
2018-05-31T06:50:20.957Z,22.22
2018-05-31T06:51:20.883Z,22.34
2018-05-31T06:53:13.736Z,22.36
2018-05-31T06:54:13.636Z,22.48
2018-05-31T06:56:06.469Z,22.53
2018-05-31T06:57:06.388Z,22.58
2018-05-31T06:58:59.249Z,22.66
2018-05-31T06:59:59.134Z,22.74
2018-05-31T07:01:51.979Z,22.89
2018-05-31T07:02:51.870Z,22.81
2018-05-31T07:04:44.705Z,22.85
2018-05-31T07:05:44.624Z,22.92
2018-05-31T07:07:37.476Z,23.03
2018-05-31T07:08:37.414Z,23.01
2018-05-31T07:10:30.216Z,23.18
2018-05-31T07:11:30.117Z,23.15
2018-05-31T07:13:23.013Z,23.28
2018-05-31T07:14:22.922Z,23.26
2018-05-31T07:16:15.727Z,23.36
2018-05-31T07:17:15.627Z,23.34
2018-05-31T07:19:08.496Z,23.39
2018-05-31T07:20:08.372Z,23.48
2018-05-31T07:22:01.271Z,23.60
2018-05-31T07:23:01.159Z,23.60
2018-05-31T07:24:54.081Z,23.73
2018-05-31T07:25:54.006Z,23.76
2018-05-31T07:27:46.810Z,23.88
2018-05-31T07:28:46.742Z,23.84
2018-05-31T07:30:39.711Z,23.81
2018-05-31T07:31:39.601Z,23.89
2018-05-31T07:33:32.539Z,23.97
2018-05-31T07:34:32.497Z,24.04
2018-05-31T07:36:25.381Z,24.08
2018-05-31T07:37:25.286Z,24.04
2018-05-31T07:39:18.120Z,24.25
2018-05-31T07:40:18.042Z,24.26
2018-05-31T07:42:10.880Z,24.19
2018-05-31T07:43:10.788Z,24.21
2018-05-31T07:45:03.652Z,24.33
2018-05-31T07:46:03.534Z,24.33
2018-05-31T07:47:56.365Z,24.38
2018-05-31T07:48:56.285Z,24.34
2018-05-31T07:50:49.242Z,24.55
2018-05-31T07:51:49.162Z,24.55
2018-05-31T07:53:41.964Z,24.63
2018-05-31T07:54:41.886Z,24.74
2018-05-31T07:56:34.735Z,24.75
2018-05-31T07:57:34.635Z,24.70
2018-05-31T07:59:27.476Z,24.75
2018-05-31T08:00:27.379Z,24.68
2018-05-31T08:02:20.251Z,24.68
2018-05-31T08:03:20.128Z,24.82
2018-05-31T08:05:12.987Z,24.84
2018-05-31T08:06:12.896Z,24.84
2018-05-31T08:08:05.738Z,24.89
2018-05-31T08:09:05.654Z,24.93
2018-05-31T08:10:58.483Z,25.11
2018-05-31T08:11:58.377Z,25.08
2018-05-31T08:13:51.342Z,25.12
2018-05-31T08:14:51.130Z,25.15
2018-05-31T08:16:43.987Z,25.26
2018-05-31T08:17:43.884Z,25.30
2018-05-31T08:19:36.747Z,25.52
2018-05-31T08:20:36.634Z,25.56
2018-05-31T08:22:29.545Z,25.63
2018-05-31T08:23:29.396Z,25.70
2018-05-31T08:25:22.255Z,25.70
2018-05-31T08:26:22.145Z,25.70
2018-05-31T08:28:14.976Z,25.83
2018-05-31T08:29:14.885Z,25.88
2018-05-31T08:31:07.742Z,25.75
2018-05-31T08:32:07.651Z,25.77
2018-05-31T08:34:00.473Z,25.89
2018-05-31T08:35:00.382Z,25.90
2018-05-31T08:36:53.233Z,25.95
2018-05-31T08:37:53.141Z,26.01
2018-05-31T08:39:45.962Z,26.07
2018-05-31T08:40:45.877Z,26.03
2018-05-31T08:42:38.750Z,25.81
2018-05-31T08:43:38.631Z,25.77
2018-05-31T08:45:32.005Z,25.88
2018-05-31T08:46:31.897Z,25.81
2018-05-31T08:48:24.781Z,25.86
2018-05-31T08:49:24.642Z,26.08
2018-05-31T08:51:17.480Z,26.28
2018-05-31T08:52:17.386Z,26.30
2018-05-31T08:54:10.248Z,26.36
2018-05-31T08:55:10.138Z,26.43
2018-05-31T08:57:03.489Z,26.45
2018-05-31T08:58:03.407Z,26.43
2018-05-31T08:59:57.183Z,26.60
2018-05-31T09:00:56.149Z,26.57
2018-05-31T09:02:48.974Z,26.70
2018-05-31T09:03:48.903Z,26.78
2018-05-31T09:05:41.766Z,26.45
2018-05-31T09:06:41.659Z,26.45
2018-05-31T09:08:34.478Z,26.52
2018-05-31T09:09:34.403Z,26.56
2018-05-31T09:11:27.278Z,26.82
2018-05-31T09:12:27.140Z,26.94
2018-05-31T09:14:19.983Z,26.85
2018-05-31T09:15:19.896Z,26.94
2018-05-31T09:17:12.757Z,26.95
2018-05-31T09:18:12.656Z,27.08
2018-05-31T09:20:05.493Z,27.42
2018-05-31T09:21:05.411Z,27.52
2018-05-31T09:22:58.781Z,27.31
2018-05-31T09:23:58.147Z,27.13
2018-05-31T09:25:50.978Z,26.85
2018-05-31T09:26:50.899Z,26.97
2018-05-31T09:28:46.828Z,27.13
2018-05-31T09:29:46.616Z,27.05
2018-05-31T09:31:40.506Z,26.93
2018-05-31T09:32:40.395Z,26.89
2018-05-31T09:34:33.281Z,27.12
2018-05-31T09:35:33.133Z,27.42
2018-05-31T09:37:25.988Z,27.53
2018-05-31T09:38:25.887Z,27.26
2018-05-31T09:40:18.961Z,27.05
2018-05-31T09:41:18.839Z,27.01
2018-05-31T09:43:11.674Z,27.03
2018-05-31T09:44:11.589Z,27.15
2018-05-31T09:46:04.457Z,26.94
2018-05-31T09:47:04.352Z,27.15
2018-05-31T09:48:57.170Z,27.45
2018-05-31T09:49:57.098Z,27.50
2018-05-31T09:51:49.952Z,27.60
2018-05-31T09:52:49.848Z,27.52
2018-05-31T09:54:42.666Z,27.57
2018-05-31T09:55:42.626Z,27.53
2018-05-31T09:57:35.450Z,27.53
2018-05-31T09:58:35.342Z,27.52
2018-05-31T10:00:28.204Z,27.66
2018-05-31T10:01:28.106Z,27.58
2018-05-31T10:03:20.947Z,27.57
2018-05-31T10:04:20.845Z,27.70
2018-05-31T10:06:13.699Z,27.47
2018-05-31T10:07:13.599Z,27.37
2018-05-31T10:09:06.456Z,27.35
2018-05-31T10:10:06.372Z,27.50
2018-05-31T10:11:59.680Z,27.49
2018-05-31T10:12:59.639Z,27.35
2018-05-31T10:14:52.966Z,27.13
2018-05-31T10:15:52.875Z,27.17
2018-05-31T10:17:45.804Z,27.38
2018-05-31T10:18:45.612Z,27.32
2018-05-31T10:20:38.499Z,27.40
2018-05-31T10:21:38.408Z,27.27
2018-05-31T10:23:31.273Z,27.20
2018-05-31T10:24:31.109Z,26.93
2018-05-31T10:26:24.668Z,26.68
2018-05-31T10:27:24.574Z,26.57
2018-05-31T10:29:17.427Z,26.58
2018-05-31T10:30:17.337Z,26.42
2018-05-31T10:32:10.301Z,26.27
2018-05-31T10:33:10.167Z,26.26
2018-05-31T10:35:03.021Z,26.21
2018-05-31T10:36:03.098Z,26.33
2018-05-31T10:37:55.789Z,26.27
2018-05-31T10:38:55.677Z,26.23
2018-05-31T10:40:48.511Z,26.26
2018-05-31T10:41:48.424Z,26.24
2018-05-31T10:43:41.288Z,26.19
2018-05-31T10:44:41.175Z,26.23
2018-05-31T10:46:34.099Z,26.16
2018-05-31T10:47:33.937Z,26.15
2018-05-31T10:49:26.754Z,26.03
2018-05-31T10:50:26.683Z,25.89
2018-05-31T10:52:19.517Z,25.93
2018-05-31T10:53:19.426Z,25.89
2018-05-31T10:55:12.253Z,25.77
2018-05-31T10:56:12.182Z,25.61
2018-05-31T10:58:05.045Z,25.38
2018-05-31T10:59:04.929Z,25.37
2018-05-31T11:00:58.276Z,25.12
2018-05-31T11:01:57.677Z,24.99
2018-05-31T11:03:50.514Z,24.85
2018-05-31T11:04:50.424Z,24.85
2018-05-31T11:06:44.193Z,24.68
2018-05-31T11:07:43.165Z,24.71
2018-05-31T11:09:36.537Z,24.62
2018-05-31T11:10:36.474Z,24.55
2018-05-31T11:12:29.270Z,24.38
2018-05-31T11:13:29.184Z,24.29
2018-05-31T11:15:22.051Z,24.23
2018-05-31T11:16:21.933Z,24.21
2018-05-31T11:18:14.779Z,24.10
2018-05-31T11:19:14.712Z,24.18
2018-05-31T11:21:07.516Z,24.22
2018-05-31T11:22:07.437Z,24.19
2018-05-31T11:24:00.308Z,24.25
2018-05-31T11:25:00.177Z,24.11
2018-05-31T11:26:53.033Z,23.97
2018-05-31T11:27:52.933Z,23.94
2018-05-31T11:29:45.885Z,23.86
2018-05-31T11:30:45.801Z,23.82
2018-05-31T11:32:38.718Z,23.76
2018-05-31T11:33:38.625Z,23.76
2018-05-31T11:35:32.048Z,23.78
2018-05-31T11:36:31.893Z,23.73
2018-05-31T11:38:24.854Z,23.79
2018-05-31T11:39:24.743Z,23.64
2018-05-31T11:41:17.615Z,23.64
2018-05-31T11:42:17.492Z,23.63
2018-05-31T11:44:10.839Z,23.59
2018-05-31T11:45:10.870Z,23.60
2018-05-31T11:47:03.616Z,23.61
2018-05-31T11:48:03.500Z,23.55
2018-05-31T11:49:56.442Z,23.41
2018-05-31T11:50:56.349Z,23.45
2018-05-31T11:52:49.715Z,23.33
2018-05-31T11:53:49.639Z,23.34
2018-05-31T11:55:42.502Z,23.44
2018-05-31T11:56:42.370Z,23.45
2018-05-31T11:58:35.206Z,23.39
2018-05-31T11:59:35.136Z,23.46
2018-05-31T12:01:27.984Z,23.45
2018-05-31T12:02:27.862Z,23.45
2018-05-31T12:04:20.715Z,23.51
2018-05-31T12:05:20.684Z,23.52
2018-05-31T12:07:13.595Z,23.54
2018-05-31T12:08:13.499Z,23.60
2018-05-31T12:10:06.307Z,23.59
2018-05-31T12:11:06.219Z,23.45
2018-05-31T12:12:59.089Z,23.49
2018-05-31T12:13:59.001Z,23.64
2018-05-31T12:15:51.941Z,23.60
2018-05-31T12:16:51.847Z,23.69
2018-05-31T12:18:44.767Z,23.88
2018-05-31T12:19:44.673Z,23.97
2018-05-31T12:21:38.042Z,24.13
2018-05-31T12:22:37.984Z,24.10
2018-05-31T12:24:30.891Z,24.21
2018-05-31T12:25:30.844Z,24.29
2018-05-31T12:27:23.797Z,24.43
2018-05-31T12:28:23.647Z,24.51
2018-05-31T12:30:16.601Z,24.58
2018-05-31T12:31:16.488Z,24.52
2018-05-31T12:33:09.342Z,24.70
2018-05-31T12:34:09.269Z,24.65
2018-05-31T12:36:02.599Z,24.85
2018-05-31T12:37:01.985Z,24.76
2018-05-31T12:38:54.852Z,24.71
2018-05-31T12:39:54.733Z,24.90
2018-05-31T12:41:47.671Z,25.06
2018-05-31T12:42:47.591Z,25.19
2018-05-31T12:44:40.450Z,25.41
2018-05-31T12:45:40.335Z,25.66
2018-05-31T12:47:33.275Z,25.92
2018-05-31T12:48:33.189Z,26.05
2018-05-31T12:50:26.038Z,26.30
2018-05-31T12:51:25.936Z,26.42
2018-05-31T12:53:18.772Z,26.67
2018-05-31T12:54:18.692Z,26.75
2018-05-31T12:56:11.648Z,26.97
2018-05-31T12:57:11.542Z,26.95
2018-05-31T12:59:04.383Z,27.08
2018-05-31T13:00:04.307Z,26.94
2018-05-31T13:01:57.241Z,27.13
2018-05-31T13:02:57.149Z,27.45
2018-05-31T13:04:50.092Z,27.68
2018-05-31T13:05:50.071Z,27.76
2018-05-31T13:07:42.953Z,27.93
2018-05-31T13:08:42.855Z,27.94
2018-05-31T13:10:35.807Z,27.97
2018-05-31T13:11:35.703Z,28.09
2018-05-31T13:13:28.641Z,28.03
2018-05-31T13:14:28.579Z,27.98
2018-05-31T13:16:21.516Z,27.98
2018-05-31T13:17:21.422Z,28.27
2018-05-31T13:19:15.775Z,28.61
2018-05-31T13:20:14.249Z,28.65
2018-05-31T13:22:10.388Z,28.54
2018-05-31T13:23:10.207Z,28.56
2018-05-31T13:25:04.057Z,28.90
2018-05-31T13:26:03.969Z,28.86
2018-05-31T13:27:56.932Z,28.86
2018-05-31T13:28:56.798Z,28.90
2018-05-31T13:30:49.787Z,29.18
2018-05-31T13:31:49.667Z,29.29
2018-05-31T13:33:42.621Z,29.25
2018-05-31T13:34:42.516Z,29.19
2018-05-31T13:36:37.106Z,29.10
2018-05-31T13:37:37.013Z,29.19
2018-05-31T13:39:29.958Z,29.36
2018-05-31T13:40:29.869Z,29.39
2018-05-31T13:42:23.219Z,29.36
2018-05-31T13:43:23.129Z,29.36
2018-05-31T13:45:16.068Z,29.24
2018-05-31T13:46:15.977Z,29.41
2018-05-31T13:48:08.930Z,29.65
2018-05-31T13:49:08.829Z,29.58
2018-05-31T13:51:01.756Z,29.17
2018-05-31T13:52:01.666Z,28.86
2018-05-31T13:53:54.622Z,29.13
2018-05-31T13:54:54.515Z,29.29
2018-05-31T13:56:47.477Z,29.59
2018-05-31T13:57:47.382Z,29.81
2018-05-31T13:59:40.338Z,30.37
2018-05-31T14:00:40.249Z,30.43
2018-05-31T14:02:33.181Z,30.83
2018-05-31T14:03:33.076Z,31.10
2018-05-31T14:05:27.157Z,31.59
2018-05-31T14:06:27.062Z,31.79
2018-05-31T14:08:20.017Z,32.11
2018-05-31T14:09:19.915Z,32.19
2018-05-31T14:11:12.852Z,32.16
2018-05-31T14:12:12.757Z,32.11
2018-05-31T14:14:05.745Z,31.91
2018-05-31T14:15:05.638Z,31.91
2018-05-31T14:16:58.571Z,32.14
2018-05-31T14:17:58.477Z,32.23
2018-05-31T14:19:51.436Z,32.01
2018-05-31T14:20:51.333Z,31.75
2018-05-31T14:22:44.266Z,31.68
2018-05-31T14:23:44.171Z,31.82
2018-05-31T14:25:37.142Z,32.26
2018-05-31T14:26:37.031Z,31.87
2018-05-31T14:28:30.389Z,31.11
2018-05-31T14:29:29.886Z,30.77
2018-05-31T14:31:22.844Z,31.07
2018-05-31T14:32:22.720Z,31.23
2018-05-31T14:34:15.676Z,31.68
2018-05-31T14:35:15.575Z,31.87
2018-05-31T14:37:08.528Z,31.76
2018-05-31T14:38:08.441Z,31.74
2018-05-31T14:40:01.373Z,31.79
2018-05-31T14:41:01.283Z,32.02
2018-05-31T14:42:54.754Z,32.16
2018-05-31T14:43:54.653Z,32.27
2018-05-31T14:45:47.579Z,32.68
2018-05-31T14:46:47.511Z,32.94
2018-05-31T14:48:40.449Z,33.26
2018-05-31T14:49:40.351Z,33.42
2018-05-31T14:51:33.310Z,33.47
2018-05-31T14:52:33.200Z,33.44
2018-05-31T14:54:26.171Z,33.41
2018-05-31T14:55:26.059Z,33.35
2018-05-31T14:57:19.012Z,33.17
2018-05-31T14:58:18.909Z,33.12
2018-05-31T15:00:11.859Z,33.24
2018-05-31T15:01:11.752Z,33.36
2018-05-31T15:03:04.704Z,33.81
2018-05-31T15:04:04.636Z,33.91
2018-05-31T15:05:57.537Z,33.84
2018-05-31T15:06:57.462Z,33.79
2018-05-31T15:08:50.442Z,33.54
2018-05-31T15:09:50.311Z,33.54
2018-05-31T15:11:43.248Z,33.71
2018-05-31T15:12:43.175Z,33.85
2018-05-31T15:14:36.225Z,34.04
2018-05-31T15:15:36.141Z,34.11
2018-05-31T15:17:29.057Z,34.07
2018-05-31T15:18:28.975Z,33.98
2018-05-31T15:20:21.979Z,33.55
2018-05-31T15:21:21.835Z,33.24
2018-05-31T15:23:15.283Z,32.65
2018-05-31T15:24:15.279Z,32.38
2018-05-31T15:26:08.179Z,31.89
2018-05-31T15:27:08.043Z,31.48
2018-05-31T15:29:00.978Z,31.19
2018-05-31T15:30:00.889Z,31.08
2018-05-31T15:31:53.826Z,30.93
2018-05-31T15:32:53.741Z,30.60
2018-05-31T15:34:46.704Z,30.45
2018-05-31T15:35:46.598Z,30.29
2018-05-31T15:37:39.535Z,30.07
2018-05-31T15:38:39.475Z,29.99
2018-05-31T15:40:32.827Z,30.02
2018-05-31T15:41:32.299Z,29.99
2018-05-31T15:43:25.286Z,30.11
2018-05-31T15:44:25.229Z,30.10
2018-05-31T15:46:18.098Z,30.07
2018-05-31T15:47:18.007Z,30.02
2018-05-31T15:49:10.948Z,30.00
2018-05-31T15:50:10.858Z,29.74
2018-05-31T15:52:03.812Z,29.61
2018-05-31T15:53:03.722Z,29.62
2018-05-31T15:54:56.644Z,29.52
2018-05-31T15:55:56.575Z,29.52
2018-05-31T15:57:49.505Z,29.56
2018-05-31T15:58:49.413Z,29.54
2018-05-31T16:00:42.360Z,28.94
2018-05-31T16:01:42.275Z,28.87
2018-05-31T16:03:35.222Z,28.30
2018-05-31T16:04:35.113Z,28.17
2018-05-31T16:06:28.069Z,28.05
2018-05-31T16:07:27.970Z,27.94
2018-05-31T16:09:20.914Z,28.09
2018-05-31T16:10:20.818Z,28.17
2018-05-31T16:12:13.771Z,28.17
2018-05-31T16:13:13.669Z,28.17
2018-05-31T16:15:06.599Z,28.13
2018-05-31T16:16:06.559Z,28.17
2018-05-31T16:17:59.573Z,28.03
2018-05-31T16:18:59.377Z,28.01
2018-05-31T16:20:52.302Z,28.00
2018-05-31T16:21:52.223Z,27.98
2018-05-31T16:23:45.227Z,28.00
2018-05-31T16:24:45.104Z,27.95
2018-05-31T16:26:38.005Z,27.78
2018-05-31T16:27:37.860Z,27.79
2018-05-31T16:29:30.686Z,27.68
2018-05-31T16:30:30.580Z,27.75
2018-05-31T16:32:23.551Z,27.64
2018-05-31T16:33:23.427Z,27.61
2018-05-31T16:35:16.308Z,27.41
2018-05-31T16:36:16.187Z,27.45
2018-05-31T16:38:09.055Z,27.40
2018-05-31T16:39:08.932Z,27.35
2018-05-31T16:41:01.812Z,27.20
2018-05-31T16:42:01.765Z,27.32
2018-05-31T16:43:55.221Z,27.32
2018-05-31T16:44:54.435Z,27.23
2018-05-31T16:46:47.763Z,27.08
2018-05-31T16:47:47.683Z,27.13
2018-05-31T16:49:40.546Z,27.07
2018-05-31T16:50:40.439Z,27.04
2018-05-31T16:52:33.267Z,26.88
2018-05-31T16:53:33.188Z,26.83
2018-05-31T16:55:27.261Z,26.63
2018-05-31T16:56:27.162Z,26.71
2018-05-31T16:58:20.059Z,26.61
2018-05-31T16:59:19.937Z,26.56
2018-05-31T17:01:12.762Z,26.60
2018-05-31T17:02:12.672Z,26.60
2018-05-31T17:04:05.522Z,26.39
2018-05-31T17:05:05.425Z,26.56
2018-05-31T17:06:58.247Z,26.52
2018-05-31T17:07:58.163Z,26.58
2018-05-31T17:09:51.118Z,26.48
2018-05-31T17:10:50.913Z,26.61
2018-05-31T17:12:43.762Z,26.63
2018-05-31T17:13:43.655Z,26.41
2018-05-31T17:15:36.702Z,26.39
2018-05-31T17:16:36.580Z,26.20
2018-05-31T17:18:29.267Z,26.12
2018-05-31T17:19:29.181Z,26.12
2018-05-31T17:21:22.009Z,26.20
2018-05-31T17:22:21.920Z,26.16
2018-05-31T17:24:14.823Z,26.03
2018-05-31T17:25:14.661Z,26.03
2018-05-31T17:27:07.509Z,25.98
2018-05-31T17:28:07.412Z,25.89
2018-05-31T17:30:00.269Z,26.00
2018-05-31T17:31:00.163Z,25.90
2018-05-31T17:32:52.994Z,25.93
2018-05-31T17:33:52.902Z,25.85
2018-05-31T17:35:46.285Z,25.89
2018-05-31T17:36:46.183Z,25.86
2018-05-31T17:38:39.023Z,25.85
2018-05-31T17:39:38.941Z,25.89
2018-05-31T17:41:31.768Z,26.00
2018-05-31T17:42:31.668Z,25.90
2018-05-31T17:44:24.493Z,26.03
2018-05-31T17:45:24.425Z,25.96
2018-05-31T17:47:17.291Z,25.96
2018-05-31T17:48:17.193Z,25.89
2018-05-31T17:50:10.099Z,26.03
2018-05-31T17:51:10.013Z,25.93
2018-05-31T17:53:02.893Z,25.73
2018-05-31T17:54:02.770Z,25.61
2018-05-31T17:55:55.604Z,25.56
2018-05-31T17:56:55.521Z,25.49
2018-05-31T17:58:48.365Z,25.51
2018-05-31T17:59:48.274Z,25.52
2018-05-31T18:01:41.154Z,25.61
2018-05-31T18:02:41.047Z,25.51
2018-05-31T18:04:34.371Z,25.51
2018-05-31T18:05:34.282Z,25.48
2018-05-31T18:07:27.128Z,25.38
2018-05-31T18:08:27.033Z,25.33
2018-05-31T18:10:19.903Z,25.34
2018-05-31T18:11:19.780Z,25.33
2018-05-31T18:13:12.622Z,25.22
2018-05-31T18:14:12.529Z,25.30
2018-05-31T18:16:05.367Z,25.33
2018-05-31T18:17:05.286Z,25.18
2018-05-31T18:18:58.166Z,25.23
2018-05-31T18:19:58.027Z,25.09
2018-05-31T18:21:50.870Z,25.06
2018-05-31T18:22:50.790Z,25.16
2018-05-31T18:24:43.623Z,25.11
2018-05-31T18:25:43.529Z,24.99
2018-05-31T18:27:36.380Z,24.82
2018-05-31T18:28:36.274Z,24.65
2018-05-31T18:30:29.128Z,24.55
2018-05-31T18:31:29.055Z,24.51
2018-05-31T18:33:21.873Z,24.47